sensor_id;sensor_type;location;lat;lon;timestamp;pressure;altitude;pressure_sealevel;temperature
69857;BMP280;57147;53.582;10.112;2023-07-08T00:01:51;101980.81;;;17.94
69857;BMP280;57147;53.582;10.112;2023-07-08T00:06:51;101951.38;;;17.72
69857;BMP280;57147;53.582;10.112;2023-07-08T00:11:54;101956.75;;;17.72
69857;BMP280;57147;53.582;10.112;2023-07-08T00:16:55;101918.13;;;17.50
69857;BMP280;57147;53.582;10.112;2023-07-08T00:21:56;101934.59;;;17.58
69857;BMP280;57147;53.582;10.112;2023-07-08T00:26:59;101936.47;;;17.48
69857;BMP280;57147;53.582;10.112;2023-07-08T00:31:59;101908.75;;;17.31
69857;BMP280;57147;53.582;10.112;2023-07-08T00:37:00;101921.84;;;17.32
69857;BMP280;57147;53.582;10.112;2023-07-08T00:42:09;101919.94;;;17.24
69857;BMP280;57147;53.582;10.112;2023-07-08T00:47:14;101901.41;;;17.14
69857;BMP280;57147;53.582;10.112;2023-07-08T00:52:20;101903.13;;;17.10
69857;BMP280;57147;53.582;10.112;2023-07-08T00:57:25;101892.84;;;17.03
69857;BMP280;57147;53.582;10.112;2023-07-08T01:02:27;101868.56;;;16.78
69857;BMP280;57147;53.582;10.112;2023-07-08T01:07:28;101869.19;;;16.75
69857;BMP280;57147;53.582;10.112;2023-07-08T01:12:40;101877.72;;;16.77
69857;BMP280;57147;53.582;10.112;2023-07-08T01:17:43;101864.22;;;16.59
69857;BMP280;57147;53.582;10.112;2023-07-08T01:22:46;101871.63;;;16.62
69857;BMP280;57147;53.582;10.112;2023-07-08T01:27:49;101827.28;;;16.34
69857;BMP280;57147;53.582;10.112;2023-07-08T01:32:56;101858.00;;;16.50
69857;BMP280;57147;53.582;10.112;2023-07-08T01:38:02;101850.19;;;16.40
69857;BMP280;57147;53.582;10.112;2023-07-08T01:43:05;101843.88;;;16.36
69857;BMP280;57147;53.582;10.112;2023-07-08T01:48:10;101841.91;;;16.28
69857;BMP280;57147;53.582;10.112;2023-07-08T01:53:18;101833.81;;;16.19
69857;BMP280;57147;53.582;10.112;2023-07-08T01:58:19;101838.47;;;16.14
69857;BMP280;57147;53.582;10.112;2023-07-08T02:03:19;101803.28;;;15.85
69857;BMP280;57147;53.582;10.112;2023-07-08T02:08:23;101830.81;;;15.99
69857;BMP280;57147;53.582;10.112;2023-07-08T02:13:24;101828.25;;;15.94
69857;BMP280;57147;53.582;10.112;2023-07-08T02:18:25;101800.31;;;15.72
69857;BMP280;57147;53.582;10.112;2023-07-08T02:23:28;101824.31;;;15.78
69857;BMP280;57147;53.582;10.112;2023-07-08T02:28:29;101801.63;;;15.61
69857;BMP280;57147;53.582;10.112;2023-07-08T02:33:29;101800.16;;;15.55
69857;BMP280;57147;53.582;10.112;2023-07-08T02:38:32;101813.94;;;15.62
69857;BMP280;57147;53.582;10.112;2023-07-08T02:43:33;101817.22;;;15.59
69857;BMP280;57147;53.582;10.112;2023-07-08T02:48:34;101823.75;;;15.53
69857;BMP280;57147;53.582;10.112;2023-07-08T02:53:37;101821.56;;;15.42
69857;BMP280;57147;53.582;10.112;2023-07-08T02:58:37;101784.38;;;15.18
69857;BMP280;57147;53.582;10.112;2023-07-08T03:03:38;101781.28;;;15.11
69857;BMP280;57147;53.582;10.112;2023-07-08T03:08:41;101833.06;;;15.42
69857;BMP280;57147;53.582;10.112;2023-07-08T03:13:42;101818.72;;;15.38
69857;BMP280;57147;53.582;10.112;2023-07-08T03:18:42;101827.34;;;15.35
69857;BMP280;57147;53.582;10.112;2023-07-08T03:23:47;101820.41;;;15.34
69857;BMP280;57147;53.582;10.112;2023-07-08T03:28:48;101742.94;;;14.88
69857;BMP280;57147;53.582;10.112;2023-07-08T03:33:49;101808.03;;;15.24
69857;BMP280;57147;53.582;10.112;2023-07-08T03:38:54;101819.00;;;15.37
69857;BMP280;57147;53.582;10.112;2023-07-08T03:43:55;101798.72;;;15.22
69857;BMP280;57147;53.582;10.112;2023-07-08T03:48:56;101811.66;;;15.42
69857;BMP280;57147;53.582;10.112;2023-07-08T03:53:59;101815.53;;;15.50
69857;BMP280;57147;53.582;10.112;2023-07-08T03:59:00;101815.72;;;15.53
69857;BMP280;57147;53.582;10.112;2023-07-08T04:04:01;101803.34;;;15.44
69857;BMP280;57147;53.582;10.112;2023-07-08T04:09:04;101828.69;;;15.73
69857;BMP280;57147;53.582;10.112;2023-07-08T04:14:05;101827.69;;;15.83
69857;BMP280;57147;53.582;10.112;2023-07-08T04:19:05;101826.66;;;15.93
69857;BMP280;57147;53.582;10.112;2023-07-08T04:24:09;101824.44;;;16.08
69857;BMP280;57147;53.582;10.112;2023-07-08T04:29:11;101835.88;;;16.22
69857;BMP280;57147;53.582;10.112;2023-07-08T04:34:13;101825.94;;;16.23
69857;BMP280;57147;53.582;10.112;2023-07-08T04:39:16;101840.56;;;16.39
69857;BMP280;57147;53.582;10.112;2023-07-08T04:44:17;101863.75;;;16.66
69857;BMP280;57147;53.582;10.112;2023-07-08T04:49:17;101842.84;;;16.77
69857;BMP280;57147;53.582;10.112;2023-07-08T04:54:21;101832.19;;;16.63
69857;BMP280;57147;53.582;10.112;2023-07-08T04:59:23;101886.06;;;17.06
69857;BMP280;57147;53.582;10.112;2023-07-08T05:04:24;101899.69;;;17.18
69857;BMP280;57147;53.582;10.112;2023-07-08T05:09:27;101904.19;;;17.31
69857;BMP280;57147;53.582;10.112;2023-07-08T05:14:28;101892.53;;;17.44
69857;BMP280;57147;53.582;10.112;2023-07-08T05:19:28;101907.72;;;17.58
69857;BMP280;57147;53.582;10.112;2023-07-08T05:24:32;101902.88;;;17.68
69857;BMP280;57147;53.582;10.112;2023-07-08T05:29:32;101898.78;;;17.79
69857;BMP280;57147;53.582;10.112;2023-07-08T05:34:33;101924.53;;;17.89
69857;BMP280;57147;53.582;10.112;2023-07-08T05:39:36;101925.81;;;18.00
69857;BMP280;57147;53.582;10.112;2023-07-08T05:44:37;101937.81;;;18.11
69857;BMP280;57147;53.582;10.112;2023-07-08T05:49:37;101927.38;;;18.18
69857;BMP280;57147;53.582;10.112;2023-07-08T05:54:41;101934.03;;;18.29
69857;BMP280;57147;53.582;10.112;2023-07-08T05:59:41;101933.72;;;18.39
69857;BMP280;57147;53.582;10.112;2023-07-08T06:04:42;101912.38;;;18.34
69857;BMP280;57147;53.582;10.112;2023-07-08T06:09:46;101940.19;;;18.56
69857;BMP280;57147;53.582;10.112;2023-07-08T06:14:46;101924.69;;;18.53
69857;BMP280;57147;53.582;10.112;2023-07-08T06:19:47;101939.03;;;18.74
69857;BMP280;57147;53.582;10.112;2023-07-08T06:24:50;101955.47;;;18.81
69857;BMP280;57147;53.582;10.112;2023-07-08T06:29:51;101951.16;;;18.88
69857;BMP280;57147;53.582;10.112;2023-07-08T06:34:51;101942.28;;;18.97
69857;BMP280;57147;53.582;10.112;2023-07-08T06:39:55;101947.19;;;19.03
69857;BMP280;57147;53.582;10.112;2023-07-08T06:44:55;101918.09;;;18.88
69857;BMP280;57147;53.582;10.112;2023-07-08T06:49:56;101943.28;;;19.21
69857;BMP280;57147;53.582;10.112;2023-07-08T06:54:59;101940.13;;;19.28
69857;BMP280;57147;53.582;10.112;2023-07-08T06:59:59;101939.16;;;19.32
69857;BMP280;57147;53.582;10.112;2023-07-08T07:05:00;101921.88;;;19.33
69857;BMP280;57147;53.582;10.112;2023-07-08T07:10:04;101936.28;;;19.37
69857;BMP280;57147;53.582;10.112;2023-07-08T07:15:05;101942.47;;;19.59
69857;BMP280;57147;53.582;10.112;2023-07-08T07:20:07;101934.59;;;19.74
69857;BMP280;57147;53.582;10.112;2023-07-08T07:25:11;101917.50;;;19.70
69857;BMP280;57147;53.582;10.112;2023-07-08T07:30:12;101940.63;;;19.92
69857;BMP280;57147;53.582;10.112;2023-07-08T07:35:13;101939.34;;;19.98
69857;BMP280;57147;53.582;10.112;2023-07-08T07:40:16;101929.88;;;19.92
69857;BMP280;57147;53.582;10.112;2023-07-08T07:45:17;101938.00;;;20.04
69857;BMP280;57147;53.582;10.112;2023-07-08T07:50:18;101909.50;;;20.03
69857;BMP280;57147;53.582;10.112;2023-07-08T07:55:21;101918.50;;;20.07
69857;BMP280;57147;53.582;10.112;2023-07-08T08:00:22;101945.91;;;20.30
69857;BMP280;57147;53.582;10.112;2023-07-08T08:05:23;101943.13;;;20.39
69857;BMP280;57147;53.582;10.112;2023-07-08T08:10:26;101937.94;;;20.46
69857;BMP280;57147;53.582;10.112;2023-07-08T08:15:26;101899.25;;;20.42
69857;BMP280;57147;53.582;10.112;2023-07-08T08:20:28;101919.56;;;20.72
69857;BMP280;57147;53.582;10.112;2023-07-08T08:25:31;101936.25;;;20.86
69857;BMP280;57147;53.582;10.112;2023-07-08T08:30:34;101934.22;;;20.95
69857;BMP280;57147;53.582;10.112;2023-07-08T08:35:35;101945.50;;;21.09
69857;BMP280;57147;53.582;10.112;2023-07-08T08:40:39;101937.28;;;21.18
69857;BMP280;57147;53.582;10.112;2023-07-08T08:45:47;101905.97;;;21.05
69857;BMP280;57147;53.582;10.112;2023-07-08T08:50:52;101952.88;;;21.37
69857;BMP280;57147;53.582;10.112;2023-07-08T08:56:05;101952.84;;;21.49
69857;BMP280;57147;53.582;10.112;2023-07-08T09:01:12;101955.53;;;21.61
69857;BMP280;57147;53.582;10.112;2023-07-08T09:06:16;101915.81;;;21.49
69857;BMP280;57147;53.582;10.112;2023-07-08T09:11:31;101933.66;;;21.78
69857;BMP280;57147;53.582;10.112;2023-07-08T09:16:44;101947.00;;;21.99
69857;BMP280;57147;53.582;10.112;2023-07-08T09:21:49;101936.94;;;22.11
69857;BMP280;57147;53.582;10.112;2023-07-08T09:26:57;101945.81;;;22.27
69857;BMP280;57147;53.582;10.112;2023-07-08T09:32:01;101962.69;;;22.37
69857;BMP280;57147;53.582;10.112;2023-07-08T09:37:26;101925.94;;;22.35
69857;BMP280;57147;53.582;10.112;2023-07-08T09:42:32;101928.75;;;22.55
69857;BMP280;57147;53.582;10.112;2023-07-08T09:47:35;101938.38;;;22.68
69857;BMP280;57147;53.582;10.112;2023-07-08T09:52:36;101948.84;;;22.85
69857;BMP280;57147;53.582;10.112;2023-07-08T09:57:40;101947.63;;;22.98
69857;BMP280;57147;53.582;10.112;2023-07-08T10:02:43;101948.19;;;23.07
69857;BMP280;57147;53.582;10.112;2023-07-08T10:07:45;101949.13;;;23.15
69857;BMP280;57147;53.582;10.112;2023-07-08T10:12:55;101945.81;;;23.21
69857;BMP280;57147;53.582;10.112;2023-07-08T10:17:56;101954.41;;;23.43
69857;BMP280;57147;53.582;10.112;2023-07-08T10:23:04;101929.13;;;23.38
69857;BMP280;57147;53.582;10.112;2023-07-08T10:28:18;101956.00;;;23.63
69857;BMP280;57147;53.582;10.112;2023-07-08T10:33:34;101935.31;;;23.74
69857;BMP280;57147;53.582;10.112;2023-07-08T10:38:47;101940.69;;;23.93
69857;BMP280;57147;53.582;10.112;2023-07-08T10:44:00;101955.38;;;24.11
69857;BMP280;57147;53.582;10.112;2023-07-08T10:49:39;101959.22;;;24.29
69857;BMP280;57147;53.582;10.112;2023-07-08T10:54:54;101963.19;;;24.58
69857;BMP280;57147;53.582;10.112;2023-07-08T11:00:13;101942.31;;;24.62
69857;BMP280;57147;53.582;10.112;2023-07-08T11:05:24;101965.56;;;24.86
69857;BMP280;57147;53.582;10.112;2023-07-08T11:10:29;101948.94;;;24.91
69857;BMP280;57147;53.582;10.112;2023-07-08T11:15:41;101957.47;;;25.19
69857;BMP280;57147;53.582;10.112;2023-07-08T11:20:47;101955.59;;;25.23
69857;BMP280;57147;53.582;10.112;2023-07-08T11:25:53;101955.88;;;25.44
69857;BMP280;57147;53.582;10.112;2023-07-08T11:30:58;101960.00;;;25.68
69857;BMP280;57147;53.582;10.112;2023-07-08T11:36:02;101955.53;;;25.83
69857;BMP280;57147;53.582;10.112;2023-07-08T11:41:12;101958.84;;;26.02
69857;BMP280;57147;53.582;10.112;2023-07-08T11:46:19;101950.47;;;26.22
69857;BMP280;57147;53.582;10.112;2023-07-08T11:51:23;101950.66;;;26.50
69857;BMP280;57147;53.582;10.112;2023-07-08T11:56:25;101948.47;;;26.66
69857;BMP280;57147;53.582;10.112;2023-07-08T12:01:32;101936.13;;;26.83
69857;BMP280;57147;53.582;10.112;2023-07-08T12:06:46;101932.25;;;26.91
69857;BMP280;57147;53.582;10.112;2023-07-08T12:11:48;101926.03;;;26.94
69857;BMP280;57147;53.582;10.112;2023-07-08T12:16:53;101937.09;;;27.22
69857;BMP280;57147;53.582;10.112;2023-07-08T12:21:54;101930.88;;;27.36
69857;BMP280;57147;53.582;10.112;2023-07-08T12:26:54;101929.72;;;27.37
69857;BMP280;57147;53.582;10.112;2023-07-08T12:31:58;101919.22;;;27.46
69857;BMP280;57147;53.582;10.112;2023-07-08T12:36:58;101911.88;;;27.74
69857;BMP280;57147;53.582;10.112;2023-07-08T12:41:59;101909.94;;;27.79
69857;BMP280;57147;53.582;10.112;2023-07-08T12:47:03;101902.91;;;27.92
69857;BMP280;57147;53.582;10.112;2023-07-08T12:52:04;101919.66;;;28.11
69857;BMP280;57147;53.582;10.112;2023-07-08T12:57:07;101918.09;;;28.28
69857;BMP280;57147;53.582;10.112;2023-07-08T13:02:15;101906.72;;;28.47
69857;BMP280;57147;53.582;10.112;2023-07-08T13:07:25;101884.13;;;28.40
69857;BMP280;57147;53.582;10.112;2023-07-08T13:12:29;101902.81;;;28.59
69857;BMP280;57147;53.582;10.112;2023-07-08T13:17:34;101869.22;;;28.65
69857;BMP280;57147;53.582;10.112;2023-07-08T13:22:35;101899.91;;;29.01
69857;BMP280;57147;53.582;10.112;2023-07-08T13:27:36;101891.59;;;29.19
69857;BMP280;57147;53.582;10.112;2023-07-08T13:32:39;101894.63;;;29.35
69857;BMP280;57147;53.582;10.112;2023-07-08T13:37:39;101883.19;;;29.50
69857;BMP280;57147;53.582;10.112;2023-07-08T13:42:47;101887.66;;;29.78
69857;BMP280;57147;53.582;10.112;2023-07-08T13:48:01;101874.34;;;29.80
69857;BMP280;57147;53.582;10.112;2023-07-08T13:53:02;101883.91;;;29.99
69857;BMP280;57147;53.582;10.112;2023-07-08T13:58:02;101879.88;;;30.14
69857;BMP280;57147;53.582;10.112;2023-07-08T14:03:09;101872.84;;;30.09
69857;BMP280;57147;53.582;10.112;2023-07-08T14:08:13;101881.25;;;30.29
69857;BMP280;57147;53.582;10.112;2023-07-08T14:13:14;101852.75;;;30.23
69857;BMP280;57147;53.582;10.112;2023-07-08T14:18:17;101879.97;;;30.41
69857;BMP280;57147;53.582;10.112;2023-07-08T14:23:17;101865.94;;;30.35
69857;BMP280;57147;53.582;10.112;2023-07-08T14:28:18;101874.97;;;30.32
69857;BMP280;57147;53.582;10.112;2023-07-08T14:33:21;101818.81;;;30.13
69857;BMP280;57147;53.582;10.112;2023-07-08T14:38:22;101860.41;;;30.69
69857;BMP280;57147;53.582;10.112;2023-07-08T14:43:27;101843.13;;;30.72
69857;BMP280;57147;53.582;10.112;2023-07-08T14:48:32;101864.72;;;30.70
69857;BMP280;57147;53.582;10.112;2023-07-08T14:53:32;101849.81;;;30.71
69857;BMP280;57147;53.582;10.112;2023-07-08T14:58:33;101851.16;;;30.86
69857;BMP280;57147;53.582;10.112;2023-07-08T15:03:36;101855.22;;;31.01
69857;BMP280;57147;53.582;10.112;2023-07-08T15:08:37;101849.53;;;30.89
69857;BMP280;57147;53.582;10.112;2023-07-08T15:13:38;101847.81;;;30.98
69857;BMP280;57147;53.582;10.112;2023-07-08T15:18:41;101852.88;;;31.03
69857;BMP280;57147;53.582;10.112;2023-07-08T15:23:42;101856.13;;;30.95
69857;BMP280;57147;53.582;10.112;2023-07-08T15:28:44;101851.50;;;30.88
69857;BMP280;57147;53.582;10.112;2023-07-08T15:33:48;101853.41;;;30.68
69857;BMP280;57147;53.582;10.112;2023-07-08T15:38:48;101847.09;;;30.71
69857;BMP280;57147;53.582;10.112;2023-07-08T15:43:49;101842.50;;;30.61
69857;BMP280;57147;53.582;10.112;2023-07-08T15:48:55;101846.34;;;30.67
69857;BMP280;57147;53.582;10.112;2023-07-08T15:53:55;101845.25;;;30.61
69857;BMP280;57147;53.582;10.112;2023-07-08T15:58:56;101845.31;;;30.57
69857;BMP280;57147;53.582;10.112;2023-07-08T16:03:59;101844.78;;;30.66
69857;BMP280;57147;53.582;10.112;2023-07-08T16:09:00;101833.53;;;30.87
69857;BMP280;57147;53.582;10.112;2023-07-08T16:14:00;101833.78;;;31.19
69857;BMP280;57147;53.582;10.112;2023-07-08T16:19:04;101833.69;;;31.26
69857;BMP280;57147;53.582;10.112;2023-07-08T16:24:05;101835.81;;;31.15
69857;BMP280;57147;53.582;10.112;2023-07-08T16:29:08;101835.69;;;30.99
69857;BMP280;57147;53.582;10.112;2023-07-08T16:34:15;101833.28;;;31.01
69857;BMP280;57147;53.582;10.112;2023-07-08T16:39:16;101827.19;;;30.90
69857;BMP280;57147;53.582;10.112;2023-07-08T16:44:17;101854.75;;;31.06
69857;BMP280;57147;53.582;10.112;2023-07-08T16:49:20;101846.38;;;30.90
69857;BMP280;57147;53.582;10.112;2023-07-08T16:54:21;101846.84;;;30.85
69857;BMP280;57147;53.582;10.112;2023-07-08T16:59:21;101850.31;;;30.89
69857;BMP280;57147;53.582;10.112;2023-07-08T17:04:25;101856.00;;;30.75
69857;BMP280;57147;53.582;10.112;2023-07-08T17:09:25;101835.47;;;30.60
69857;BMP280;57147;53.582;10.112;2023-07-08T17:14:26;101857.31;;;30.67
69857;BMP280;57147;53.582;10.112;2023-07-08T17:19:29;101857.00;;;30.61
69857;BMP280;57147;53.582;10.112;2023-07-08T17:24:30;101850.38;;;30.59
69857;BMP280;57147;53.582;10.112;2023-07-08T17:29:31;101838.91;;;30.34
69857;BMP280;57147;53.582;10.112;2023-07-08T17:34:34;101850.06;;;30.20
69857;BMP280;57147;53.582;10.112;2023-07-08T17:39:34;101856.34;;;30.17
69857;BMP280;57147;53.582;10.112;2023-07-08T17:44:35;101843.47;;;30.13
69857;BMP280;57147;53.582;10.112;2023-07-08T17:49:38;101852.06;;;30.12
69857;BMP280;57147;53.582;10.112;2023-07-08T17:54:39;101843.25;;;29.97
69857;BMP280;57147;53.582;10.112;2023-07-08T17:59:40;101845.34;;;29.86
69857;BMP280;57147;53.582;10.112;2023-07-08T18:04:43;101849.72;;;29.77
69857;BMP280;57147;53.582;10.112;2023-07-08T18:09:44;101855.38;;;29.59
69857;BMP280;57147;53.582;10.112;2023-07-08T18:14:45;101855.06;;;29.43
69857;BMP280;57147;53.582;10.112;2023-07-08T18:19:48;101852.88;;;29.24
69857;BMP280;57147;53.582;10.112;2023-07-08T18:24:49;101856.47;;;29.07
69857;BMP280;57147;53.582;10.112;2023-07-08T18:29:49;101858.19;;;28.86
69857;BMP280;57147;53.582;10.112;2023-07-08T18:34:53;101843.47;;;28.52
69857;BMP280;57147;53.582;10.112;2023-07-08T18:39:53;101861.47;;;28.39
69857;BMP280;57147;53.582;10.112;2023-07-08T18:44:54;101863.09;;;28.12
69857;BMP280;57147;53.582;10.112;2023-07-08T18:49:57;101865.06;;;27.76
69857;BMP280;57147;53.582;10.112;2023-07-08T18:54:58;101878.69;;;27.51
69857;BMP280;57147;53.582;10.112;2023-07-08T18:59:58;101870.06;;;27.35
69857;BMP280;57147;53.582;10.112;2023-07-08T19:05:02;101871.22;;;27.13
69857;BMP280;57147;53.582;10.112;2023-07-08T19:10:04;101880.38;;;26.70
69857;BMP280;57147;53.582;10.112;2023-07-08T19:15:17;101887.56;;;26.37
69857;BMP280;57147;53.582;10.112;2023-07-08T19:20:24;101883.81;;;26.05
69857;BMP280;57147;53.582;10.112;2023-07-08T19:25:26;101882.06;;;25.83
69857;BMP280;57147;53.582;10.112;2023-07-08T19:30:26;101888.84;;;25.63
69857;BMP280;57147;53.582;10.112;2023-07-08T19:35:35;101852.63;;;25.18
69857;BMP280;57147;53.582;10.112;2023-07-08T19:40:44;101897.38;;;25.24
69857;BMP280;57147;53.582;10.112;2023-07-08T19:45:46;101897.50;;;25.05
69857;BMP280;57147;53.582;10.112;2023-07-08T19:50:50;101895.31;;;24.88
69857;BMP280;57147;53.582;10.112;2023-07-08T19:55:50;101901.31;;;24.74
69857;BMP280;57147;53.582;10.112;2023-07-08T20:00:51;101912.00;;;24.60
69857;BMP280;57147;53.582;10.112;2023-07-08T20:05:54;101907.84;;;24.43
69857;BMP280;57147;53.582;10.112;2023-07-08T20:10:55;101897.53;;;24.30
69857;BMP280;57147;53.582;10.112;2023-07-08T20:15:56;101909.00;;;24.20
69857;BMP280;57147;53.582;10.112;2023-07-08T20:20:59;101916.59;;;24.11
69857;BMP280;57147;53.582;10.112;2023-07-08T20:26:01;101910.25;;;24.03
69857;BMP280;57147;53.582;10.112;2023-07-08T20:31:02;101919.47;;;23.99
69857;BMP280;57147;53.582;10.112;2023-07-08T20:36:09;101914.66;;;23.88
69857;BMP280;57147;53.582;10.112;2023-07-08T20:41:12;101891.63;;;23.60
69857;BMP280;57147;53.582;10.112;2023-07-08T20:46:17;101921.59;;;23.67
69857;BMP280;57147;53.582;10.112;2023-07-08T20:51:21;101923.38;;;23.59
69857;BMP280;57147;53.582;10.112;2023-07-08T20:56:26;101934.00;;;23.49
69857;BMP280;57147;53.582;10.112;2023-07-08T21:01:28;101927.63;;;23.41
69857;BMP280;57147;53.582;10.112;2023-07-08T21:06:31;101935.97;;;23.32
69857;BMP280;57147;53.582;10.112;2023-07-08T21:11:32;101938.25;;;23.30
69857;BMP280;57147;53.582;10.112;2023-07-08T21:16:33;101941.97;;;23.22
69857;BMP280;57147;53.582;10.112;2023-07-08T21:21:37;101933.22;;;23.13
69857;BMP280;57147;53.582;10.112;2023-07-08T21:26:37;101942.06;;;23.10
69857;BMP280;57147;53.582;10.112;2023-07-08T21:59:17;101923.34;;;22.55
69857;BMP280;57147;53.582;10.112;2023-07-08T22:04:19;101889.44;;;22.29
69857;BMP280;57147;53.582;10.112;2023-07-08T22:09:20;101911.72;;;22.39
69857;BMP280;57147;53.582;10.112;2023-07-08T22:14:23;101910.41;;;22.32
69857;BMP280;57147;53.582;10.112;2023-07-08T22:19:24;101888.13;;;22.08
69857;BMP280;57147;53.582;10.112;2023-07-08T22:24:25;101892.84;;;22.11
69857;BMP280;57147;53.582;10.112;2023-07-08T22:29:28;101897.19;;;22.00
69857;BMP280;57147;53.582;10.112;2023-07-08T22:34:28;101920.69;;;22.11
69857;BMP280;57147;53.582;10.112;2023-07-08T22:45:03;101923.72;;;22.10
69857;BMP280;57147;53.582;10.112;2023-07-08T22:50:03;101924.53;;;22.10
69857;BMP280;57147;53.582;10.112;2023-07-08T22:55:10;101924.34;;;22.03
69857;BMP280;57147;53.582;10.112;2023-07-08T23:00:18;101929.53;;;21.96
69857;BMP280;57147;53.582;10.112;2023-07-08T23:05:21;101925.94;;;21.92
69857;BMP280;57147;53.582;10.112;2023-07-08T23:10:23;101926.19;;;21.87
69857;BMP280;57147;53.582;10.112;2023-07-08T23:15:26;101870.22;;;21.48
69857;BMP280;57147;53.582;10.112;2023-07-08T23:20:27;101940.72;;;21.82
69857;BMP280;57147;53.582;10.112;2023-07-08T23:25:28;101936.09;;;21.83
69857;BMP280;57147;53.582;10.112;2023-07-08T23:30:31;101935.22;;;21.79
69857;BMP280;57147;53.582;10.112;2023-07-08T23:35:32;101934.31;;;21.75
69857;BMP280;57147;53.582;10.112;2023-07-08T23:40:32;101931.09;;;21.69
69857;BMP280;57147;53.582;10.112;2023-07-08T23:45:35;101937.50;;;21.65
69857;BMP280;57147;53.582;10.112;2023-07-08T23:50:36;101932.91;;;21.53
69857;BMP280;57147;53.582;10.112;2023-07-08T23:55:37;101933.94;;;21.49
